createdAt,value
2022-11-07T00:04:50.142Z,46.00
2022-11-07T00:11:05.118Z,46.80
2022-11-07T00:17:21.540Z,46.10
2022-11-07T00:23:30.862Z,46.10
2022-11-07T00:29:49.914Z,46.10
2022-11-07T00:36:06.362Z,46.10
2022-11-07T00:42:18.213Z,46.20
2022-11-07T00:48:34.074Z,46.10
2022-11-07T00:54:48.048Z,46.10
2022-11-07T01:01:04.282Z,45.90
2022-11-07T01:07:20.503Z,45.70
2022-11-07T01:13:35.755Z,45.90
2022-11-07T01:19:51.294Z,46.40
2022-11-07T01:26:10.797Z,46.00
2022-11-07T01:32:27.360Z,46.70
2022-11-07T01:38:36.405Z,46.20
2022-11-07T01:45:02.174Z,46.60
2022-11-07T01:51:18.360Z,46.80
2022-11-07T01:57:33.440Z,47.20
2022-11-07T02:03:51.108Z,47.90
2022-11-07T02:10:04.512Z,47.40
2022-11-07T02:16:14.586Z,47.30
2022-11-07T02:22:28.423Z,47.20
2022-11-07T02:28:44.221Z,47.10
2022-11-07T02:35:08.919Z,47.10
2022-11-07T02:41:25.787Z,47.00
2022-11-07T02:47:39.162Z,47.20
2022-11-07T02:53:54.914Z,47.20
2022-11-07T03:00:09.304Z,47.30
2022-11-07T03:06:26.298Z,47.30
2022-11-07T03:12:39.578Z,47.10
2022-11-07T03:18:54.780Z,47.20
2022-11-07T03:25:13.341Z,47.30
2022-11-07T03:31:29.246Z,47.60
2022-11-07T03:37:47.063Z,47.70
2022-11-07T03:44:01.667Z,47.50
2022-11-07T03:50:19.015Z,47.80
2022-11-07T03:56:33.405Z,47.90
2022-11-07T04:02:49.253Z,47.80
2022-11-07T04:09:02.835Z,47.80
2022-11-07T04:15:35.366Z,47.60
2022-11-07T04:21:50.809Z,47.50
2022-11-07T04:28:06.750Z,47.40
2022-11-07T04:34:22.358Z,47.30
2022-11-07T04:40:36.944Z,47.40
2022-11-07T04:46:50.642Z,47.30
2022-11-07T04:53:03.800Z,47.10
2022-11-07T04:59:20.598Z,47.00
2022-11-07T05:05:31.733Z,47.00
2022-11-07T05:11:49.625Z,47.10
2022-11-07T05:18:02.777Z,47.10
2022-11-07T05:24:17.275Z,47.30
2022-11-07T05:30:28.155Z,47.50
2022-11-07T05:36:45.207Z,47.00
2022-11-07T05:42:57.085Z,45.90
2022-11-07T05:49:11.493Z,46.30
2022-11-07T05:55:27.202Z,46.30
2022-11-07T06:01:41.568Z,46.60
2022-11-07T06:07:55.783Z,46.10
2022-11-07T06:14:11.418Z,45.70
2022-11-07T06:20:24.734Z,46.10
2022-11-07T06:26:37.943Z,46.40
2022-11-07T06:32:50.076Z,46.50
2022-11-07T06:39:05.660Z,46.30
2022-11-07T06:45:21.054Z,46.20
2022-11-07T06:51:40.801Z,46.50
2022-11-07T06:57:53.503Z,46.70
2022-11-07T07:04:06.323Z,46.90
2022-11-07T07:10:26.110Z,46.40
2022-11-07T07:16:35.847Z,46.50
2022-11-07T07:22:49.205Z,46.70
2022-11-07T07:29:06.218Z,46.90
2022-11-07T07:35:23.067Z,46.90
2022-11-07T07:41:40.871Z,46.40
2022-11-07T07:47:50.460Z,46.60
2022-11-07T07:54:04.108Z,46.80
2022-11-07T08:00:20.032Z,47.00
2022-11-07T08:06:34.359Z,46.90
2022-11-07T08:13:04.241Z,46.50
2022-11-07T08:19:17.758Z,46.70
2022-11-07T08:25:31.007Z,46.90
2022-11-07T08:31:39.683Z,47.00
2022-11-07T08:37:53.101Z,47.30
2022-11-07T08:44:08.547Z,46.30
2022-11-07T08:50:21.829Z,46.60
2022-11-07T08:56:35.096Z,46.90
2022-11-07T09:09:05.473Z,47.00
2022-11-07T09:15:23.487Z,46.20
2022-11-07T09:21:34.450Z,46.40
2022-11-07T09:27:53.603Z,46.70
2022-11-07T09:34:05.513Z,46.80
2022-11-07T09:40:22.063Z,46.40
2022-11-07T09:46:35.063Z,46.30
2022-11-07T09:52:55.638Z,46.60
2022-11-07T09:59:14.380Z,46.60
2022-11-07T10:05:28.266Z,46.60
2022-11-07T10:11:41.478Z,46.20
2022-11-07T10:17:58.922Z,46.20
2022-11-07T10:24:27.300Z,46.20
2022-11-07T10:30:37.926Z,46.30
2022-11-07T10:36:50.047Z,46.00
2022-11-07T10:43:04.189Z,45.60
2022-11-07T10:49:26.881Z,45.70
2022-11-07T10:55:47.564Z,45.80
2022-11-07T11:02:02.819Z,45.80
2022-11-07T11:08:23.177Z,45.40
2022-11-07T11:14:34.924Z,45.20
2022-11-07T11:20:50.595Z,45.40
2022-11-07T11:27:03.142Z,45.30
2022-11-07T11:33:16.110Z,45.50
2022-11-07T11:39:37.275Z,45.20
2022-11-07T11:45:53.917Z,45.10
2022-11-07T11:52:11.011Z,45.30
2022-11-07T11:58:30.564Z,45.60
2022-11-07T12:04:47.895Z,45.70
2022-11-07T12:11:03.218Z,45.40
2022-11-07T12:17:18.330Z,45.30
2022-11-07T12:23:36.034Z,45.50
2022-11-07T12:29:59.504Z,45.60
2022-11-07T12:36:17.934Z,45.50
2022-11-07T12:42:40.300Z,45.40
2022-11-07T12:49:02.438Z,45.50
2022-11-07T12:55:28.471Z,45.30
2022-11-07T13:01:47.084Z,45.10
2022-11-07T13:08:04.276Z,44.70
2022-11-07T13:14:25.786Z,44.70
2022-11-07T13:20:42.200Z,44.70
2022-11-07T13:26:58.652Z,44.90
2022-11-07T13:33:31.675Z,43.70
2022-11-07T13:39:45.440Z,43.70
2022-11-07T13:46:01.066Z,43.70
2022-11-07T13:52:20.002Z,43.70
2022-11-07T13:58:34.173Z,43.80
2022-11-07T14:05:15.453Z,43.70
2022-11-07T14:11:11.756Z,44.00
2022-11-07T14:17:27.350Z,44.00
2022-11-07T14:23:44.100Z,44.20
2022-11-07T14:30:03.993Z,43.70
2022-11-07T14:36:24.474Z,43.10
2022-11-07T14:42:40.421Z,43.10
2022-11-07T14:48:57.254Z,42.90
2022-11-07T14:55:13.795Z,42.50
2022-11-07T15:01:34.435Z,42.70
2022-11-07T15:07:55.964Z,42.70
2022-11-07T15:14:13.313Z,42.30
2022-11-07T15:20:41.446Z,42.30
2022-11-07T15:27:08.585Z,41.90
2022-11-07T15:33:22.082Z,41.70
2022-11-07T15:39:41.420Z,41.80
2022-11-07T15:45:53.404Z,41.50
2022-11-07T15:52:09.838Z,41.40
2022-11-07T15:58:24.857Z,41.20
2022-11-07T16:04:40.818Z,41.20
2022-11-07T16:11:04.925Z,41.00
2022-11-07T16:17:19.844Z,40.80
2022-11-07T16:23:34.827Z,40.70
2022-11-07T16:29:55.642Z,40.70
2022-11-07T16:36:19.399Z,40.70
2022-11-07T16:42:36.743Z,40.80
2022-11-07T16:48:56.609Z,41.20
2022-11-07T16:55:15.532Z,42.80
2022-11-07T17:01:30.312Z,42.70
2022-11-07T17:07:45.633Z,42.50
2022-11-07T17:14:02.309Z,42.40
2022-11-07T17:26:44.758Z,42.30
2022-11-07T17:33:02.056Z,41.90
2022-11-07T17:39:21.812Z,41.60
2022-11-07T17:45:36.041Z,41.40
2022-11-07T17:51:50.908Z,41.40
2022-11-07T17:58:05.050Z,41.20
2022-11-07T18:04:21.969Z,41.30
2022-11-07T18:10:37.177Z,41.90
2022-11-07T18:16:52.981Z,41.20
2022-11-07T18:23:09.831Z,41.40
2022-11-07T18:29:26.062Z,41.20
2022-11-07T18:35:42.992Z,41.40
2022-11-07T18:42:01.758Z,41.90
2022-11-07T18:48:18.208Z,41.10
2022-11-07T18:54:30.818Z,41.40
2022-11-07T19:00:48.819Z,41.40
2022-11-07T19:07:05.419Z,41.30
2022-11-07T19:13:22.877Z,41.30
2022-11-07T19:19:37.313Z,41.20
2022-11-07T19:25:51.962Z,41.10
2022-11-07T19:32:07.699Z,41.20
2022-11-07T19:38:27.471Z,41.10
2022-11-07T19:44:42.987Z,41.20
2022-11-07T19:50:58.316Z,41.20
2022-11-07T19:57:13.448Z,41.20
2022-11-07T20:03:31.712Z,41.20
2022-11-07T20:09:47.889Z,41.10
2022-11-07T20:16:01.148Z,41.10
2022-11-07T20:22:19.044Z,41.20
2022-11-07T20:28:36.751Z,41.20
2022-11-07T20:34:53.840Z,41.10
2022-11-07T20:41:07.276Z,41.40
2022-11-07T20:47:22.954Z,41.30
2022-11-07T20:53:39.101Z,41.20
2022-11-07T20:59:53.372Z,41.30
2022-11-07T21:06:04.410Z,41.10
2022-11-07T21:12:20.031Z,41.10
2022-11-07T21:18:31.640Z,41.40
2022-11-07T21:24:42.043Z,41.30
2022-11-07T21:31:10.045Z,41.30
2022-11-07T21:37:27.237Z,41.20
2022-11-07T21:43:42.135Z,41.40
2022-11-07T21:49:59.562Z,41.20
2022-11-07T21:56:12.408Z,41.20
2022-11-07T22:02:23.487Z,41.20
2022-11-07T22:08:41.970Z,41.50
2022-11-07T22:14:53.647Z,41.70
2022-11-07T22:21:10.566Z,41.80
2022-11-07T22:27:25.801Z,42.20
2022-11-07T22:33:37.398Z,43.00
2022-11-07T22:39:52.310Z,43.00
2022-11-07T22:46:13.220Z,42.70
2022-11-07T22:52:29.469Z,42.60
2022-11-07T22:58:44.747Z,42.30
2022-11-07T23:04:58.559Z,42.50
2022-11-07T23:17:35.232Z,42.60
2022-11-07T23:23:43.911Z,42.50
2022-11-07T23:29:59.576Z,42.80
2022-11-07T23:36:14.044Z,43.60
2022-11-07T23:42:29.817Z,43.20
2022-11-07T23:48:59.594Z,43.10
2022-11-07T23:55:28.344Z,43.20
